createdAt,value
2022-10-23T00:02:35.824Z,7.28
2022-10-23T00:06:51.536Z,7.38
2022-10-23T00:11:08.749Z,7.28
2022-10-23T00:15:24.187Z,7.43
2022-10-23T00:19:38.099Z,7.88
2022-10-23T00:23:53.300Z,7.05
2022-10-23T00:28:07.219Z,7.90
2022-10-23T00:32:21.382Z,6.97
2022-10-23T00:36:35.751Z,6.47
2022-10-23T00:40:51.567Z,6.47
2022-10-23T00:45:20.543Z,5.90
2022-10-23T00:49:34.635Z,6.38
2022-10-23T00:54:01.287Z,5.03
2022-10-23T00:58:27.957Z,5.13
2022-10-23T01:02:42.030Z,5.10
2022-10-23T01:07:04.343Z,5.18
2022-10-23T01:11:23.301Z,5.23
2022-10-23T01:15:45.579Z,4.60
2022-10-23T01:20:16.613Z,5.28
2022-10-23T01:24:40.803Z,5.57
2022-10-23T01:29:02.569Z,5.63
2022-10-23T01:33:24.075Z,5.68
2022-10-23T01:37:43.227Z,5.95
2022-10-23T01:42:04.710Z,5.73
2022-10-23T01:46:20.830Z,6.10
2022-10-23T01:50:35.852Z,5.63
2022-10-23T01:54:52.669Z,5.77
2022-10-23T01:59:10.671Z,16.38
2022-10-23T02:03:30.828Z,7.53
2022-10-23T02:07:45.465Z,5.97
2022-10-23T02:12:03.980Z,5.80
2022-10-23T02:16:24.294Z,5.68
2022-10-23T02:25:08.495Z,4.83
2022-10-23T02:29:28.365Z,5.43
2022-10-23T02:33:46.510Z,5.60
2022-10-23T02:38:02.715Z,5.57
2022-10-23T02:42:23.543Z,5.82
2022-10-23T02:46:47.328Z,5.57
2022-10-23T02:51:07.254Z,5.33
2022-10-23T02:55:35.186Z,5.00
2022-10-23T02:59:57.040Z,5.25
2022-10-23T03:04:12.580Z,5.22
2022-10-23T03:08:26.629Z,5.00
2022-10-23T03:12:42.401Z,5.35
2022-10-23T03:16:56.488Z,5.22
2022-10-23T03:21:12.256Z,5.33
2022-10-23T03:25:26.009Z,5.90
2022-10-23T03:29:41.385Z,5.40
2022-10-23T03:33:55.117Z,5.47
2022-10-23T03:38:09.061Z,4.85
2022-10-23T03:42:22.749Z,5.25
2022-10-23T03:46:37.826Z,5.47
2022-10-23T03:50:51.728Z,4.30
2022-10-23T03:55:06.495Z,4.50
2022-10-23T03:59:20.292Z,4.38
2022-10-23T04:03:36.405Z,4.77
2022-10-23T04:07:50.399Z,5.28
2022-10-23T04:12:04.236Z,3.72
2022-10-23T04:16:18.466Z,3.97
2022-10-23T04:20:33.978Z,5.25
2022-10-23T04:24:49.411Z,5.10
2022-10-23T04:29:05.701Z,4.80
2022-10-23T04:33:19.403Z,5.70
2022-10-23T04:37:37.475Z,4.82
2022-10-23T04:41:52.911Z,4.43
2022-10-23T04:46:07.800Z,5.80
2022-10-23T04:50:21.989Z,4.68
2022-10-23T04:54:55.494Z,5.90
2022-10-23T04:59:09.404Z,4.87
2022-10-23T05:03:26.351Z,4.88
2022-10-23T05:07:40.909Z,4.57
2022-10-23T05:12:10.105Z,4.50
2022-10-23T05:16:33.524Z,3.33
2022-10-23T05:20:48.694Z,5.22
2022-10-23T05:25:02.703Z,3.70
2022-10-23T05:29:23.312Z,4.00
2022-10-23T05:33:41.020Z,2.67
2022-10-23T05:37:57.191Z,4.32
2022-10-23T05:42:12.472Z,2.97
2022-10-23T05:46:28.991Z,3.30
2022-10-23T05:51:04.489Z,4.28
2022-10-23T05:55:28.430Z,3.95
2022-10-23T06:00:06.287Z,3.57
2022-10-23T06:04:30.261Z,4.13
2022-10-23T06:09:04.150Z,3.90
2022-10-23T06:13:22.810Z,2.87
2022-10-23T06:17:36.508Z,3.63
2022-10-23T06:21:52.128Z,3.53
2022-10-23T06:26:09.652Z,3.33
2022-10-23T06:30:40.709Z,3.40
2022-10-23T06:34:54.597Z,4.03
2022-10-23T06:39:10.379Z,4.50
2022-10-23T06:43:53.400Z,4.30
2022-10-23T06:48:25.828Z,3.70
2022-10-23T06:52:47.850Z,3.15
2022-10-23T06:57:05.704Z,3.10
2022-10-23T07:01:30.316Z,2.60
2022-10-23T07:05:45.105Z,3.17
2022-10-23T07:09:59.711Z,3.30
2022-10-23T07:14:36.314Z,3.00
2022-10-23T07:18:58.691Z,2.80
2022-10-23T07:23:16.277Z,2.97
2022-10-23T07:27:31.822Z,2.90
2022-10-23T07:31:50.412Z,3.25
2022-10-23T07:36:21.992Z,2.75
2022-10-23T07:40:36.111Z,2.87
2022-10-23T07:44:50.766Z,2.72
2022-10-23T07:49:05.969Z,2.45
2022-10-23T07:53:21.740Z,2.67
2022-10-23T07:57:40.149Z,2.80
2022-10-23T08:02:15.487Z,2.70
2022-10-23T08:06:31.581Z,2.53
2022-10-23T08:10:47.604Z,2.40
2022-10-23T08:15:07.701Z,2.63
2022-10-23T08:19:37.122Z,2.67
2022-10-23T08:23:55.087Z,3.07
2022-10-23T08:28:09.448Z,2.33
2022-10-23T08:32:31.359Z,3.17
2022-10-23T08:36:46.684Z,2.50
2022-10-23T08:41:02.831Z,3.03
2022-10-23T08:45:43.569Z,2.97
2022-10-23T08:50:15.737Z,3.55
2022-10-23T08:54:35.123Z,2.70
2022-10-23T08:58:54.230Z,3.35
2022-10-23T09:03:07.944Z,2.80
2022-10-23T09:07:29.580Z,3.23
2022-10-23T09:11:50.240Z,2.70
2022-10-23T09:16:15.591Z,2.88
2022-10-23T09:20:34.213Z,2.40
2022-10-23T09:24:52.976Z,2.70
2022-10-23T09:29:22.133Z,2.70
2022-10-23T09:33:37.687Z,2.50
2022-10-23T09:37:53.274Z,2.50
2022-10-23T09:42:22.942Z,2.90
2022-10-23T09:46:41.138Z,2.70
2022-10-23T09:50:58.959Z,3.00
2022-10-23T09:55:21.465Z,2.85
2022-10-23T09:59:35.915Z,3.08
2022-10-23T10:03:50.631Z,2.70
2022-10-23T10:08:16.474Z,2.85
2022-10-23T10:12:44.056Z,2.90
2022-10-23T10:17:06.699Z,3.05
2022-10-23T10:21:26.143Z,2.33
2022-10-23T10:25:52.032Z,3.10
2022-10-23T10:30:13.839Z,3.17
2022-10-23T10:34:33.852Z,2.87
2022-10-23T10:38:51.863Z,3.30
2022-10-23T10:43:21.435Z,3.55
2022-10-23T10:47:47.549Z,3.07
2022-10-23T10:52:14.360Z,2.90
2022-10-23T10:56:31.323Z,2.47
2022-10-23T11:00:50.899Z,2.90
2022-10-23T11:05:14.921Z,2.50
2022-10-23T11:09:31.138Z,2.50
2022-10-23T11:13:46.669Z,2.35
2022-10-23T11:18:10.856Z,2.27
2022-10-23T11:22:34.528Z,2.20
2022-10-23T11:27:08.314Z,2.30
2022-10-23T11:31:32.151Z,2.70
2022-10-23T11:35:58.428Z,2.00
2022-10-23T11:40:23.576Z,2.55
2022-10-23T11:44:44.093Z,2.22
2022-10-23T11:49:02.532Z,1.70
2022-10-23T11:53:28.851Z,2.08
2022-10-23T11:57:42.716Z,2.00
2022-10-23T12:01:59.427Z,2.20
2022-10-23T12:06:22.896Z,1.55
2022-10-23T12:10:46.913Z,2.25
2022-10-23T12:15:20.572Z,2.03
2022-10-23T12:19:48.754Z,2.60
2022-10-23T12:24:36.496Z,2.38
2022-10-23T12:29:00.542Z,2.17
2022-10-23T12:33:26.126Z,2.10
2022-10-23T12:37:57.241Z,2.10
2022-10-23T12:42:19.771Z,2.33
2022-10-23T12:46:37.570Z,2.20
2022-10-23T12:50:54.918Z,2.65
2022-10-23T12:55:14.707Z,2.00
2022-10-23T12:59:34.398Z,2.20
2022-10-23T13:03:50.258Z,2.10
2022-10-23T13:08:04.777Z,1.92
2022-10-23T13:12:33.769Z,1.90
2022-10-23T13:17:00.488Z,1.73
2022-10-23T13:21:21.095Z,2.47
2022-10-23T13:25:36.453Z,2.10
2022-10-23T13:29:50.151Z,2.33
2022-10-23T13:34:24.702Z,1.80
2022-10-23T13:38:43.024Z,2.20
2022-10-23T13:42:58.898Z,2.50
2022-10-23T13:47:17.040Z,2.25
2022-10-23T13:51:34.544Z,2.38
2022-10-23T13:55:56.368Z,2.50
2022-10-23T14:00:13.318Z,2.30
2022-10-23T14:04:26.984Z,2.53
2022-10-23T14:08:40.784Z,2.47
2022-10-23T14:13:12.737Z,2.47
2022-10-23T14:17:35.187Z,2.50
2022-10-23T14:21:50.035Z,2.80
2022-10-23T14:26:10.763Z,2.70
2022-10-23T14:30:35.276Z,2.55
2022-10-23T14:34:55.754Z,2.58
2022-10-23T14:39:12.528Z,2.42
2022-10-23T14:43:26.993Z,2.50
2022-10-23T14:47:56.104Z,3.00
2022-10-23T14:52:16.546Z,2.60
2022-10-23T14:56:53.276Z,2.77
2022-10-23T15:01:10.695Z,2.70
2022-10-23T15:05:25.982Z,2.63
2022-10-23T15:09:45.480Z,2.73
2022-10-23T15:14:02.265Z,3.10
2022-10-23T15:18:15.899Z,3.20
2022-10-23T15:22:33.661Z,2.78
2022-10-23T15:26:51.693Z,2.73
2022-10-23T15:31:05.817Z,3.05
2022-10-23T15:35:19.731Z,3.33
2022-10-23T15:39:38.086Z,2.90
2022-10-23T15:43:52.031Z,2.60
2022-10-23T15:48:18.781Z,2.50
2022-10-23T15:52:47.950Z,2.40
2022-10-23T15:57:05.690Z,2.60
2022-10-23T16:01:24.856Z,2.60
2022-10-23T16:05:38.814Z,2.00
2022-10-23T16:09:52.755Z,1.67
2022-10-23T16:14:15.921Z,2.15
2022-10-23T16:18:32.028Z,1.90
2022-10-23T16:22:52.399Z,1.90
2022-10-23T16:27:06.433Z,1.92
2022-10-23T16:31:25.172Z,2.90
2022-10-23T16:35:48.751Z,2.70
2022-10-23T16:40:10.658Z,2.30
2022-10-23T16:44:45.609Z,2.65
2022-10-23T16:49:04.184Z,2.80
2022-10-23T16:53:17.850Z,2.30
2022-10-23T16:57:40.389Z,2.35
2022-10-23T17:01:54.383Z,2.30
2022-10-23T17:06:21.925Z,2.27
2022-10-23T17:10:36.876Z,2.50
2022-10-23T17:14:53.288Z,2.60
2022-10-23T17:19:20.842Z,2.63
2022-10-23T17:23:42.276Z,3.00
2022-10-23T17:27:57.484Z,3.20
2022-10-23T17:32:14.442Z,3.58
2022-10-23T17:36:39.744Z,2.80
2022-10-23T17:41:00.457Z,3.28
2022-10-23T17:45:20.361Z,3.22
2022-10-23T17:49:38.765Z,3.23
2022-10-23T17:54:11.268Z,2.80
2022-10-23T17:58:44.044Z,2.67
2022-10-23T18:03:13.685Z,3.30
2022-10-23T18:07:35.805Z,2.88
2022-10-23T18:12:00.760Z,3.83
2022-10-23T18:16:24.756Z,3.10
2022-10-23T18:20:42.728Z,3.40
2022-10-23T18:24:57.270Z,3.33
2022-10-23T18:29:15.566Z,3.55
2022-10-23T18:33:47.120Z,3.57
2022-10-23T18:38:12.877Z,3.20
2022-10-23T18:42:26.796Z,3.38
2022-10-23T18:46:43.506Z,3.67
2022-10-23T18:51:03.163Z,3.50
2022-10-23T18:55:26.608Z,3.35
2022-10-23T18:59:51.439Z,2.65
2022-10-23T19:04:10.444Z,2.83
2022-10-23T19:08:32.263Z,3.08
2022-10-23T19:12:46.235Z,3.60
2022-10-23T19:17:10.733Z,3.93
2022-10-23T19:21:31.717Z,2.88
2022-10-23T19:25:52.712Z,3.92
2022-10-23T19:30:14.416Z,3.97
2022-10-23T19:34:32.506Z,3.50
2022-10-23T19:39:18.648Z,3.78
2022-10-23T19:43:45.535Z,3.13
2022-10-23T19:47:59.549Z,3.20
2022-10-23T19:52:16.618Z,3.50
2022-10-23T19:56:32.969Z,3.00
2022-10-23T20:00:51.005Z,3.47
2022-10-23T20:05:06.992Z,2.80
2022-10-23T20:09:29.668Z,3.25
2022-10-23T20:13:45.130Z,3.10
2022-10-23T20:18:01.476Z,2.90
2022-10-23T20:22:15.355Z,2.90
2022-10-23T20:26:55.357Z,2.67
2022-10-23T20:31:18.701Z,3.20
2022-10-23T20:40:17.410Z,2.83
2022-10-23T20:44:31.290Z,3.03
2022-10-23T20:48:46.158Z,2.40
2022-10-23T20:53:01.230Z,2.53
2022-10-23T20:57:19.255Z,2.80
2022-10-23T21:01:35.520Z,2.42
2022-10-23T21:05:55.170Z,2.63
2022-10-23T21:10:12.967Z,2.60
2022-10-23T21:14:27.248Z,2.40
2022-10-23T21:18:46.670Z,2.95
2022-10-23T21:23:10.682Z,2.95
2022-10-23T21:27:34.244Z,3.53
2022-10-23T21:31:57.909Z,3.10
2022-10-23T21:36:19.831Z,3.40
2022-10-23T21:40:33.570Z,3.30
2022-10-23T21:44:51.868Z,3.40
2022-10-23T21:49:31.930Z,3.20
2022-10-23T21:53:54.568Z,3.20
2022-10-23T21:58:11.510Z,3.30
2022-10-23T22:02:35.977Z,3.80
2022-10-23T22:06:54.423Z,3.60
2022-10-23T22:11:12.616Z,3.57
2022-10-23T22:15:26.523Z,4.00
2022-10-23T22:19:58.435Z,3.60
2022-10-23T22:24:17.528Z,3.50
2022-10-23T22:28:39.144Z,3.10
2022-10-23T22:32:52.926Z,2.58
2022-10-23T22:37:08.351Z,2.83
2022-10-23T22:41:22.556Z,3.27
2022-10-23T22:45:36.372Z,3.20
2022-10-23T22:49:50.070Z,3.50
2022-10-23T22:54:05.646Z,3.80
2022-10-23T22:58:19.398Z,3.70
2022-10-23T23:02:33.154Z,3.88
2022-10-23T23:06:47.307Z,3.60
2022-10-23T23:11:02.780Z,3.47
2022-10-23T23:15:16.645Z,3.05
2022-10-23T23:19:30.380Z,3.30
2022-10-23T23:23:44.093Z,2.80
2022-10-23T23:27:59.750Z,3.20
2022-10-23T23:32:13.547Z,3.60
2022-10-23T23:36:28.865Z,3.77
2022-10-23T23:40:50.835Z,3.85
2022-10-23T23:45:14.410Z,3.50
2022-10-23T23:49:28.517Z,3.80
2022-10-23T23:53:42.273Z,3.58
2022-10-23T23:57:55.986Z,3.55
